EA1JBE-1
43.30.90N 005.16.15W
IN73IM aprs.fi
zuletzt gehoert:
2023-02-05T08:00:04Z
zuerst gehoert:
2020-02-23T14:17:31Z

APRS IN73IM, 2 Stunde(n), EA1JBE-1 [09:01:22, 0s].
EA1JBE 43.30.90N 005.16.15WIN73IM 0.672km 353°N08:00:36ZMAIN QTH http://qrz.com/db/ea1jbe(3EA1JBE-1)
MAIN QTH http://qrz.com/db/ea1jbe(2EA1JBE-13)
EA1FHR 43.28.72N 005.26.41WIN73GL 14.289km 256°WSW07:56:19ZMMDVM MMDVM HS Hat 439.1500/439.1500 CC1
EA1JAY 43.29.33N 005.26.78WIN73GL 14.540km 261°W08:00:08ZEA1JAY(3EA1JAY-2)
EA1JW 43.31.35N 005.28.83WIN73GM 17.185km 275°W07:57:36ZMMDVM MMDVM HS Hat 436.5000/436.5000 CC1(3EA1JW-3)
EA1HJA 43.28.10N 005.30.45WIN73FL 19.827km 257°WSW07:43:14Z IN73FL WX3IN1+ 2.0 - V=13.3V,TX TEMP=20.3C(3EA1HJA-2)
ED1ZBF 43.19.16N 005.06.74WIN73KH 24.534km 149°SSE07:55:56ZRD625 438.4750/430.8750 CC1
EB1GEM 43.30.00N 005.36.07WIN73EM 26.871km 268°W08:00:09ZWX3in1Plus2.0 U=13.3V,T=??.?C/??.?F(3EB1GEM-3)
EA4ACU 43.29.56N 005.38.92WIN73EL 30.751km 267°W07:58:30ZMMDVM MMDVM HS Hat 432.7000/432.7000 CC1(3EA4ACU-1)
EA1IEJ 43.32.33N 005.38.92WIN73EM 30.852km 276°W07:57:56ZMMDVM MMDVM HS Hat 438.8500/438.8500 CC6(3EA1IEJ-1)
MMDVM DMO 222.3400/222.3400 CC1(2EA1IEJ-11)
EA1FLQ 43.22.00N 005.36.35WIN73EI 31.531km 240°WSW07:56:31ZMMDVM DVMega 430.9750/430.9750 CC1
EA1DZR 43.31.49N 005.40.00WIN73DM 32.191km 273°W07:57:42ZMMDVM MMDVM HS Hat 432.2000/432.2000 CC2(3EA1DZR-2)
MMDVM DMO 434.3500/434.3500 CC1(2EA1DZR-4)
MMDVM DVMega 431.1000/431.1000 CC1(2EA1DZR-1)
ED1ZAS 43.27.52N 005.40.17WIN73DL 32.864km 260°W07:55:52ZRD985 438.2250/430.6250 CC1
EA1FFA 43.31.53N 005.40.64WIN73DM 33.040km 273°W07:58:00ZMMDVM MMDVM HS Hat 438.8000/438.8000 CC1(3EA1FFA-1)
ED1ZAE 43.27.99N 005.40.54WIN73DL 33.221km 262°W07:41:32Z400 M. PICO SAN MARTIN (GIJON) 13.1V,8.5C(3ED1ZAE-3)
LEEL 43.32.98N 005.41.71WIN73DN 34.728km 278°W08:00:02ZHelipuerto de El Musel: LEAS 050700Z 12005KT 080V160 9999 BKN032 09/05 Q1039 NOSIG=
EA1FPN 43.32.38N 005.42.17WIN73DM 35.205km 276°W07:57:09ZMMDVM MMDVM HS Hat 439.8750/439.8750 CC1
EB1TK 43.32.22N 005.42.32WIN73DM 35.381km 275°W07:55:16ZWind 104°/006kn, Böen bis 010kn, Temp 10.56c, Regen 0.0mm, letzte 24h 0.0mm, seit 0h 0.0mm, Baro 1042.1h, Hum: 77%(3EB1TK-13)
ED1YCF 43.23.67N 004.49.64WIN73OJ 37.769km 110°ESE07:40:34Z12.3V 23C(3ED1YCF-3)
ED1ZBC 43.23.67N 004.49.64WIN73OJ 37.769km 110°ESE07:55:56ZRepetidor trabajando con placa solar y batería, está solamente de forma estatica el TG21433 por slot 438.5250/430.9250 CC1
EA1IPU 43.26.21N 005.46.62WIN73CK 41.826km 259°W07:57:44ZMMDVM MMDVM HS Hat 439.8000/439.8000 CC1(3EA1IPU-1)
EA1ABW 43.24.77N 005.47.77WIN73CJ 43.938km 256°WSW07:57:23ZMMDVM MMDVM HS Hat 439.8250/439.8250 CC1(3EA1ABW-2)
LEMR 43.25.83N 005.49.60WIN73CK 45.913km 259°W08:00:02ZAerodromo de la Morgal (123.500MHz): LEAS 050700Z 12005KT 080V160 9999 BKN032 09/05 Q1039 NOSIG=
LEGM 43.26.15N 005.49.84WIN73CK 46.104km 260°W08:00:02ZHelipuerto de La Morgal (123.500MHz): LEAS 050700Z 12005KT 080V160 9999 BKN032 09/05 Q1039 NOSIG=
LEHU 43.22.63N 005.49.57WIN73CJ 47.380km 252°WSW08:00:04ZHelipuerto del HUCA: LEAS 050700Z 12005KT 080V160 9999 BKN032 09/05 Q1039 NOSIG=
EA1JBU 43.21.85N 005.51.13WIN73BI 49.833km 251°WSW08:00:07ZEA1JBU(3EA1JBU-1)

aprs.pl 5.0.011w DL3EL © 2006-2021 [10399224]